Time;durP1;ratioP1;P1;durP2;ratioP2;P2;SDS_P1;SDS_P2;PMS_P1;PMS_P2;Temp;Humidity;BMP_temperature;BMP_pressure;BME280_temperature;BME280_humidity;BME280_pressure;Samples;Min_cycle;Max_cycle;Signal;HPM_P1;HPM_P2
2023/01/11 05:30:53;;;;;;;10.82;1.73;;;11.70;83.40;;;;;;5741628;23;20056;-79
2023/01/11 05:33:19;;;;;;;15.68;2.15;;;11.70;82.70;;;;;;4935616;29;20039;-79
2023/01/11 05:35:45;;;;;;;11.77;2.42;;;11.70;83.10;;;;;;4936940;29;20031;-78
2023/01/11 05:38:10;;;;;;;8.23;1.73;;;11.50;82.60;;;;;;4930724;29;20104;-78
2023/01/11 05:40:36;;;;;;;4.57;2.13;;;11.60;82.90;;;;;;4918264;29;20039;-78
2023/01/11 05:43:02;;;;;;;12.20;1.88;;;11.50;82.30;;;;;;4935370;29;20060;-78
2023/01/11 05:45:27;;;;;;;15.52;2.00;;;11.50;82.40;;;;;;4940867;29;20092;-80
2023/01/11 05:47:53;;;;;;;18.48;2.05;;;11.50;82.60;;;;;;4923626;29;20043;-79
2023/01/11 05:50:19;;;;;;;10.55;1.90;;;11.50;82.60;;;;;;4919646;29;20031;-79
2023/01/11 05:52:45;;;;;;;10.88;1.73;;;11.70;83.00;;;;;;4923083;29;20054;-79
2023/01/11 05:55:14;;;;;;;7.47;2.00;;;11.60;82.70;;;;;;4926377;29;20039;-80
2023/01/11 05:57:45;;;;;;;11.75;2.42;;;11.60;82.20;;;;;;4919426;29;20072;-80
2023/01/11 06:00:11;;;;;;;10.68;2.28;;;11.60;82.40;;;;;;4904489;29;20056;-79
2023/01/11 06:02:37;;;;;;;12.05;2.13;;;11.50;82.50;;;;;;4930069;29;20020;-78
2023/01/11 06:05:19;;;;;;;12.27;1.83;;;11.50;82.30;;;;;;4940893;29;20042;-76
2023/01/11 06:07:44;;;;;;;6.38;1.65;;;11.50;82.30;;;;;;4938199;29;20062;-78
2023/01/11 06:10:26;;;;;;;5.72;2.00;;;11.50;82.40;;;;;;4939499;29;20031;-79
2023/01/11 06:16:07;;;;;;;7.28;2.00;;;11.40;82.30;;;;;;4938959;29;20446;-79
2023/01/11 06:18:39;;;;;;;11.55;2.03;;;11.30;81.90;;;;;;4938273;29;20475;-79
2023/01/11 06:21:05;;;;;;;15.52;2.90;;;11.30;82.10;;;;;;4926323;29;20074;-79
2023/01/11 06:23:38;;;;;;;8.68;2.30;;;11.30;82.00;;;;;;4921574;29;20027;-79
2023/01/11 06:26:06;;;;;;;13.48;2.13;;;11.30;81.80;;;;;;4904328;29;20028;-79
2023/01/11 06:28:32;;;;;;;10.18;2.03;;;11.30;81.90;;;;;;4929807;29;20027;-79
2023/01/11 06:30:58;;;;;;;6.10;1.70;;;11.30;82.20;;;;;;4935889;29;20048;-79
2023/01/11 06:33:26;;;;;;;10.73;2.03;;;11.30;82.20;;;;;;4942698;29;20063;-79
2023/01/11 06:35:52;;;;;;;9.75;2.85;;;11.20;81.90;;;;;;4921178;29;20031;-80
2023/01/11 06:38:19;;;;;;;8.43;2.17;;;11.20;81.70;;;;;;4938350;29;20039;-80
2023/01/11 06:40:54;;;;;;;9.23;1.73;;;11.20;81.90;;;;;;4937326;29;20038;-80
2023/01/11 06:43:21;;;;;;;9.48;1.65;;;11.20;82.00;;;;;;4939718;29;20023;-78
2023/01/11 06:46:09;;;;;;;12.95;2.10;;;11.20;81.70;;;;;;4922249;29;20026;-78
2023/01/11 06:48:35;;;;;;;6.40;1.83;;;11.20;81.80;;;;;;4939277;29;20027;-78
2023/01/11 06:51:01;;;;;;;16.65;2.47;;;11.10;81.80;;;;;;4938652;29;20047;-78
2023/01/11 06:53:28;;;;;;;13.93;2.28;;;11.20;82.10;;;;;;4937968;29;20043;-78
2023/01/11 06:55:56;;;;;;;10.80;2.00;;;11.20;82.20;;;;;;4939573;29;20043;-78
2023/01/11 06:58:22;;;;;;;13.10;2.85;;;11.10;82.00;;;;;;4934581;29;20020;-78
2023/01/11 07:00:49;;;;;;;11.70;2.75;;;11.10;82.20;;;;;;4920823;29;20039;-78
2023/01/11 07:03:22;;;;;;;9.73;1.75;;;11.00;81.90;;;;;;4905605;29;20024;-78
2023/01/11 07:05:48;;;;;;;9.77;2.38;;;11.00;82.30;;;;;;4920297;29;20075;-78
2023/01/11 07:08:14;;;;;;;13.50;1.95;;;11.00;82.30;;;;;;4920662;29;20506;-78
2023/01/11 07:10:42;;;;;;;10.98;2.05;;;11.00;82.30;;;;;;4925207;29;20051;-78
2023/01/11 07:13:09;;;;;;;11.57;2.33;;;11.00;82.00;;;;;;4927016;29;20483;-79
2023/01/11 07:15:35;;;;;;;13.75;2.35;;;10.90;82.30;;;;;;4903348;29;20032;-78
2023/01/11 07:18:01;;;;;;;9.90;2.33;;;10.90;82.30;;;;;;4920106;29;20032;-78
2023/01/11 07:20:27;;;;;;;12.52;2.33;;;10.90;82.30;;;;;;4903504;29;20038;-78
2023/01/11 07:23:00;;;;;;;12.18;2.60;;;10.90;82.40;;;;;;4920021;29;20036;-78
2023/01/11 07:25:29;;;;;;;12.98;2.70;;;10.90;82.30;;;;;;4920437;29;20027;-78
2023/01/11 07:28:06;;;;;;;9.87;2.33;;;10.90;82.20;;;;;;4920156;29;20034;-78
2023/01/11 07:30:33;;;;;;;12.77;2.28;;;10.80;82.50;;;;;;4903256;29;20316;-78
2023/01/11 07:32:59;;;;;;;15.88;2.10;;;10.80;82.40;;;;;;4934763;29;20035;-78
2023/01/11 07:35:26;;;;;;;13.93;2.45;;;10.80;82.40;;;;;;4939242;29;20038;-78
2023/01/11 07:37:52;;;;;;;12.25;2.33;;;10.80;82.50;;;;;;4938919;29;20043;-78
2023/01/11 07:40:18;;;;;;;19.55;2.65;;;10.80;82.20;;;;;;4932894;29;20035;-78
2023/01/11 07:43:13;;;;;;;9.32;2.38;;;10.80;82.40;;;;;;4932589;29;20019;-78
2023/01/11 07:45:42;;;;;;;15.85;2.45;;;10.70;82.30;;;;;;4920819;29;20023;-78
2023/01/11 07:48:09;;;;;;;12.38;2.00;;;10.70;82.30;;;;;;4939196;29;20035;-78
2023/01/11 07:50:37;;;;;;;12.30;2.15;;;10.70;82.20;;;;;;4921771;29;20055;-78
2023/01/11 07:53:03;;;;;;;9.65;2.75;;;10.70;82.20;;;;;;4914155;29;20542;-78
2023/01/11 07:55:29;;;;;;;17.60;2.75;;;10.70;82.30;;;;;;4919284;29;20125;-78
2023/01/11 07:57:58;;;;;;;20.60;3.60;;;10.70;82.20;;;;;;4921227;29;20031;-78
2023/01/11 08:00:24;;;;;;;9.23;2.72;;;10.60;81.90;;;;;;4919475;29;20051;-78
2023/01/11 08:02:51;;;;;;;19.60;4.68;;;10.70;82.50;;;;;;4933357;29;20027;-78
2023/01/11 08:05:18;;;;;;;15.15;3.30;;;10.60;82.20;;;;;;4921488;29;20035;-78
2023/01/11 08:07:44;;;;;;;13.02;2.70;;;10.60;82.30;;;;;;4917284;29;20036;-78
2023/01/11 08:10:10;;;;;;;11.73;2.65;;;10.60;82.30;;;;;;4920313;29;20035;-78
2023/01/11 08:15:28;;;;;;;8.77;1.85;;;10.60;82.20;;;;;;4936610;29;20047;-78
2023/01/11 08:17:53;;;;;;;13.13;2.60;;;10.60;82.10;;;;;;4919485;29;20427;-78
2023/01/11 08:20:19;;;;;;;12.13;2.28;;;10.60;82.40;;;;;;4919367;29;20039;-78
2023/01/11 08:22:45;;;;;;;19.55;2.80;;;10.50;82.20;;;;;;4918899;29;20024;-79
2023/01/11 08:25:11;;;;;;;13.13;2.75;;;10.50;82.20;;;;;;4934585;29;20036;-79
2023/01/11 08:27:37;;;;;;;14.43;2.03;;;10.60;82.30;;;;;;4920497;29;20016;-79
2023/01/11 08:30:03;;;;;;;8.48;2.28;;;10.60;82.20;;;;;;4937244;29;20454;-79
2023/01/11 08:32:29;;;;;;;6.13;2.33;;;10.50;82.40;;;;;;4932695;29;20047;-84
2023/01/11 08:34:54;;;;;;;13.35;2.67;;;10.50;82.20;;;;;;4920337;29;20122;-78
2023/01/11 08:37:20;;;;;;;11.70;2.50;;;10.60;81.90;;;;;;4923540;29;20623;-87
2023/01/11 08:39:47;;;;;;;11.20;2.40;;;10.50;82.00;;;;;;4937135;29;20024;-85
2023/01/11 08:42:13;;;;;;;7.32;2.42;;;10.50;81.70;;;;;;4916976;29;20027;-85
2023/01/11 08:44:38;;;;;;;10.70;2.10;;;10.50;81.90;;;;;;4919047;29;20060;-86
2023/01/11 08:47:04;;;;;;;11.13;2.33;;;10.60;81.60;;;;;;4920042;29;20051;-85
2023/01/11 08:49:30;;;;;;;13.13;3.15;;;10.70;81.90;;;;;;4919229;29;20478;-83
2023/01/11 08:51:55;;;;;;;10.05;2.65;;;10.70;81.50;;;;;;4919870;29;20066;-85
2023/01/11 08:54:22;;;;;;;12.85;2.22;;;10.70;81.50;;;;;;4931958;29;20091;-85
2023/01/11 08:56:47;;;;;;;16.23;2.55;;;10.80;81.50;;;;;;4920428;29;20119;-84
2023/01/11 08:59:13;;;;;;;12.25;2.72;;;10.90;81.30;;;;;;4932727;29;20055;-84
2023/01/11 09:01:39;;;;;;;12.05;2.40;;;10.90;81.30;;;;;;4935296;29;20035;-83
2023/01/11 09:04:04;;;;;;;15.30;2.47;;;10.90;81.10;;;;;;4919950;29;20568;-83
2023/01/11 09:06:30;;;;;;;16.50;3.78;;;10.90;81.10;;;;;;4920608;29;20067;-84
2023/01/11 09:08:56;;;;;;;15.80;2.22;;;10.90;81.10;;;;;;4915705;29;20036;-77
2023/01/11 09:14:06;;;;;;;8.27;2.05;;;11.00;81.00;;;;;;4936712;29;20098;-78
2023/01/11 09:16:31;;;;;;;12.27;2.33;;;11.00;80.60;;;;;;4935980;29;20020;-78
2023/01/11 09:18:57;;;;;;;9.32;2.15;;;11.00;80.90;;;;;;4935198;29;20042;-78
2023/01/11 09:21:23;;;;;;;11.48;2.15;;;11.10;80.70;;;;;;4921972;29;20376;-77
2023/01/11 09:23:48;;;;;;;9.80;2.88;;;11.10;80.40;;;;;;4938728;29;20019;-78
2023/01/11 09:26:14;;;;;;;9.57;1.90;;;11.10;80.20;;;;;;4938668;29;20031;-78
2023/01/11 09:28:40;;;;;;;10.80;2.80;;;11.20;80.40;;;;;;4941393;29;20371;-78
2023/01/11 09:31:07;;;;;;;15.52;3.80;;;11.50;80.00;;;;;;4938181;29;20418;-78
2023/01/11 09:33:37;;;;;;;9.88;2.97;;;11.90;78.80;;;;;;4938194;29;20615;-78
2023/01/11 09:36:03;;;;;;;13.13;1.85;;;12.60;76.80;;;;;;4938674;29;20028;-78
2023/01/11 09:38:29;;;;;;;9.38;1.90;;;13.00;75.80;;;;;;4940901;29;20448;-78
2023/01/11 09:41:27;;;;;;;7.20;1.73;;;13.00;75.10;;;;;;4939344;29;20095;-78
2023/01/11 09:44:20;;;;;;;8.70;1.45;;;12.70;75.90;;;;;;4938603;29;20038;-78
2023/01/11 09:46:50;;;;;;;19.55;2.90;;;12.30;76.00;;;;;;4921586;29;20027;-78
2023/01/11 09:49:25;;;;;;;11.75;1.98;;;12.10;76.30;;;;;;4919284;29;20083;-78
2023/01/11 09:52:00;;;;;;;13.07;2.28;;;12.00;77.50;;;;;;4940842;29;20038;-78
2023/01/11 09:54:26;;;;;;;15.68;2.95;;;11.90;77.60;;;;;;4939513;29;20061;-78
2023/01/11 09:57:17;;;;;;;10.48;2.17;;;11.90;77.90;;;;;;4943497;29;20506;-78
2023/01/11 09:59:55;;;;;;;14.60;2.50;;;11.80;78.20;;;;;;4922236;29;20086;-78
2023/01/11 10:02:45;;;;;;;10.60;2.08;;;11.80;78.40;;;;;;4937619;29;20024;-78
2023/01/11 10:05:52;;;;;;;9.82;1.73;;;11.90;78.50;;;;;;4940065;29;20382;-78
2023/01/11 10:08:40;;;;;;;9.20;1.52;;;11.90;78.50;;;;;;4921884;29;20028;-77
2023/01/11 10:11:22;;;;;;;12.43;2.30;;;11.90;78.70;;;;;;4939249;29;20035;-78
2023/01/11 10:14:25;;;;;;;10.85;2.25;;;11.90;78.70;;;;;;4938220;29;20032;-78
2023/01/11 10:17:12;;;;;;;9.27;2.13;;;11.80;78.30;;;;;;4922774;29;20051;-78
2023/01/11 10:19:46;;;;;;;15.02;2.25;;;11.90;78.80;;;;;;4938256;29;20088;-78
2023/01/11 10:22:15;;;;;;;13.10;2.15;;;11.90;78.90;;;;;;4939055;29;20027;-78
2023/01/11 10:24:49;;;;;;;10.90;2.08;;;12.00;78.80;;;;;;4936393;29;20367;-78
2023/01/11 10:27:32;;;;;;;16.73;2.25;;;12.00;78.70;;;;;;4940063;29;20148;-78
2023/01/11 10:32:39;;;;;;;12.55;3.42;;;12.10;78.70;;;;;;4939250;29;20078;-78
2023/01/11 10:41:36;;;;;;;14.38;2.50;;;12.20;78.60;;;;;;4937068;29;20030;-78
2023/01/11 10:44:12;;;;;;;8.25;2.20;;;12.30;78.40;;;;;;4937492;29;20023;-78
2023/01/11 10:46:44;;;;;;;12.63;1.77;;;12.30;78.20;;;;;;4937271;29;20106;-78
2023/01/11 10:49:35;;;;;;;6.45;1.35;;;12.30;77.90;;;;;;4936402;29;20035;-78
2023/01/11 10:52:53;;;;;;;10.25;2.10;;;12.30;77.80;;;;;;4920198;29;20024;-78
2023/01/11 10:55:42;;;;;;;8.38;2.00;;;12.30;77.50;;;;;;4858337;29;20048;-78
2023/01/11 10:58:56;;;;;;;13.38;2.20;;;12.30;77.70;;;;;;4842214;29;20116;-78
2023/01/11 11:01:55;;;;;;;11.93;2.80;;;12.40;77.60;;;;;;4921010;29;20040;-78
2023/01/11 11:04:56;;;;;;;15.75;2.50;;;12.40;77.50;;;;;;4918041;29;20449;-78
2023/01/11 11:07:46;;;;;;;10.25;2.13;;;12.40;77.40;;;;;;4936834;29;20363;-78
2023/01/11 11:10:34;;;;;;;8.43;1.75;;;12.50;77.40;;;;;;4924386;29;20026;-79
2023/01/11 11:13:18;;;;;;;10.95;1.70;;;12.60;77.00;;;;;;4938448;29;20036;-79
2023/01/11 11:16:22;;;;;;;10.63;2.13;;;12.50;76.50;;;;;;4937006;29;20035;-76
2023/01/11 11:18:57;;;;;;;11.32;2.17;;;12.50;76.60;;;;;;4890675;29;20128;-76
2023/01/11 11:21:32;;;;;;;15.40;1.98;;;12.70;77.10;;;;;;4898453;29;20499;-76
2023/01/11 11:24:12;;;;;;;13.77;2.35;;;12.70;76.50;;;;;;4922531;29;20051;-75
2023/01/11 11:26:48;;;;;;;10.82;2.53;;;12.80;76.90;;;;;;4936779;29;20036;-76
2023/01/11 11:29:21;;;;;;;12.15;2.40;;;12.80;76.40;;;;;;4936080;29;20038;-77
2023/01/11 11:31:49;;;;;;;14.85;2.40;;;12.80;76.20;;;;;;4920370;29;20060;-76
2023/01/11 11:34:21;;;;;;;10.95;2.65;;;12.80;76.10;;;;;;4938851;29;20036;-76
2023/01/11 11:36:49;;;;;;;12.75;2.63;;;12.80;76.60;;;;;;4938109;29;20024;-76
2023/01/11 11:39:21;;;;;;;16.77;2.60;;;13.00;76.00;;;;;;4936508;29;20027;-77
2023/01/11 11:41:52;;;;;;;13.48;2.47;;;13.10;75.90;;;;;;4935209;29;20062;-76
2023/01/11 11:44:21;;;;;;;9.73;1.67;;;13.20;75.40;;;;;;4933809;29;20039;-75
2023/01/11 11:47:04;;;;;;;8.77;1.77;;;13.30;75.40;;;;;;4940566;29;20027;-78
2023/01/11 11:49:35;;;;;;;11.75;2.58;;;13.30;73.70;;;;;;4932750;29;20023;-79
2023/01/11 11:52:03;;;;;;;8.70;1.80;;;13.30;73.80;;;;;;4940135;29;20019;-79
2023/01/11 11:54:33;;;;;;;11.73;1.92;;;13.30;73.90;;;;;;4924441;29;20123;-79
2023/01/11 11:57:25;;;;;;;11.23;2.03;;;13.40;74.00;;;;;;4935496;29;20028;-78
2023/01/11 12:00:20;;;;;;;8.40;2.08;;;13.40;73.60;;;;;;4933355;29;20035;-78
2023/01/11 12:02:52;;;;;;;9.32;3.42;;;13.40;72.90;;;;;;4918711;29;20562;-77
2023/01/11 12:05:18;;;;;;;10.02;2.45;;;13.50;72.10;;;;;;4919942;29;20028;-78
2023/01/11 12:07:47;;;;;;;9.52;2.03;;;13.40;71.80;;;;;;4919372;29;20024;-77
2023/01/11 12:10:22;;;;;;;5.68;1.27;;;13.40;71.40;;;;;;4903947;29;20020;-78
2023/01/11 12:12:57;;;;;;;10.15;2.00;;;13.50;72.00;;;;;;4938347;29;20047;-77
2023/01/11 12:15:27;;;;;;;10.73;2.25;;;13.40;71.10;;;;;;4937862;29;20023;-76
2023/01/11 12:17:53;;;;;;;10.13;2.08;;;13.40;72.00;;;;;;4938123;29;20510;-76
2023/01/11 12:20:22;;;;;;;9.77;2.53;;;13.40;71.70;;;;;;4921188;29;20059;-76
2023/01/11 12:23:08;;;;;;;10.50;2.38;;;13.30;71.70;;;;;;4921087;29;20039;-76
2023/01/11 12:25:44;;;;;;;10.07;1.90;;;13.40;71.60;;;;;;4929085;29;20524;-76
2023/01/11 12:28:32;;;;;;;12.05;1.77;;;13.40;71.80;;;;;;4928654;29;20020;-76
2023/01/11 12:31:20;;;;;;;9.98;1.88;;;13.60;71.40;;;;;;4935350;29;20494;-76
2023/01/11 12:33:51;;;;;;;7.00;1.80;;;13.60;71.80;;;;;;4936456;29;20020;-76
2023/01/11 12:36:45;;;;;;;9.20;1.92;;;13.60;71.40;;;;;;4934942;29;20031;-76
2023/01/11 12:39:17;;;;;;;8.63;1.48;;;13.70;70.60;;;;;;4937866;29;20138;-77
2023/01/11 12:41:56;;;;;;;5.57;1.52;;;13.70;70.80;;;;;;4931547;29;20027;-76
2023/01/11 12:44:35;;;;;;;8.43;1.55;;;13.70;70.40;;;;;;4935074;29;20020;-77
2023/01/11 12:47:36;;;;;;;6.50;1.30;;;13.70;68.70;;;;;;4933322;29;20023;-76
2023/01/11 12:50:25;;;;;;;10.50;1.75;;;13.70;69.20;;;;;;4935996;29;20119;-77
2023/01/11 12:53:25;;;;;;;5.38;1.45;;;13.60;68.80;;;;;;4936724;29;20065;-76
2023/01/11 12:56:22;;;;;;;12.27;1.70;;;13.60;68.50;;;;;;4939420;29;20110;-76
2023/01/11 12:59:26;;;;;;;17.05;2.25;;;13.40;68.30;;;;;;4930468;29;20051;-76
2023/01/11 13:01:58;;;;;;;8.73;1.63;;;13.50;69.00;;;;;;4938397;29;20027;-77
2023/01/11 13:04:51;;;;;;;12.82;1.52;;;13.50;67.90;;;;;;4941166;29;20027;-76
2023/01/11 13:07:26;;;;;;;4.82;1.65;;;13.40;66.70;;;;;;4939834;29;20023;-77
2023/01/11 13:10:42;;;;;;;10.15;2.15;;;13.50;68.10;;;;;;4941035;29;20031;-76
2023/01/11 13:13:20;;;;;;;4.60;1.23;;;13.50;67.90;;;;;;4914770;29;20058;-77
2023/01/11 13:16:02;;;;;;;6.00;2.15;;;13.50;68.10;;;;;;4939226;29;20107;-77
2023/01/11 13:19:06;;;;;;;9.93;2.20;;;13.50;68.00;;;;;;4937314;29;20034;-76
2023/01/11 13:21:43;;;;;;;7.57;1.65;;;13.50;67.90;;;;;;4938664;29;20039;-76
2023/01/11 13:24:14;;;;;;;4.65;1.92;;;13.60;68.90;;;;;;4938686;29;20518;-77
2023/01/11 13:26:47;;;;;;;9.02;1.55;;;13.60;67.50;;;;;;4940237;29;20079;-76
2023/01/11 13:29:32;;;;;;;4.55;1.13;;;13.60;68.20;;;;;;4936582;29;20435;-76
2023/01/11 13:32:01;;;;;;;8.02;1.38;;;13.70;68.10;;;;;;4938503;29;20071;-76
2023/01/11 13:34:31;;;;;;;8.50;1.40;;;13.70;67.70;;;;;;4937650;29;20038;-76
2023/01/11 13:37:04;;;;;;;6.25;1.40;;;13.60;67.00;;;;;;4940223;29;20034;-76
2023/01/11 13:40:08;;;;;;;8.13;1.73;;;13.60;68.00;;;;;;4937813;29;20031;-76
2023/01/11 13:42:38;;;;;;;13.07;2.42;;;13.60;67.50;;;;;;4936558;29;20035;-76
2023/01/11 13:45:22;;;;;;;6.28;1.52;;;13.70;67.30;;;;;;4935574;29;20028;-76
2023/01/11 13:47:55;;;;;;;7.10;1.58;;;13.70;67.60;;;;;;4921290;29;20491;-76
2023/01/11 13:50:30;;;;;;;8.25;2.03;;;13.70;66.70;;;;;;4922028;29;20028;-76
2023/01/11 13:53:18;;;;;;;13.55;1.95;;;13.70;66.60;;;;;;4927783;29;20118;-76
2023/01/11 13:55:52;;;;;;;8.20;1.50;;;13.70;66.30;;;;;;4909987;29;20154;-76
2023/01/11 13:58:28;;;;;;;7.07;1.58;;;13.70;66.80;;;;;;4934148;29;20078;-76
2023/01/11 14:01:10;;;;;;;5.43;1.30;;;13.60;66.10;;;;;;4920668;29;20434;-76
2023/01/11 14:03:46;;;;;;;4.72;1.50;;;13.70;66.40;;;;;;4929840;29;20023;-76
2023/01/11 14:06:40;;;;;;;9.65;1.90;;;13.70;65.80;;;;;;4920684;29;20030;-76
2023/01/11 14:09:40;;;;;;;4.70;1.50;;;13.70;66.50;;;;;;4928611;29;20035;-76
2023/01/11 14:12:33;;;;;;;5.22;1.98;;;13.80;66.50;;;;;;4936610;29;20023;-76
2023/01/11 14:15:18;;;;;;;8.55;2.08;;;13.80;66.50;;;;;;4938314;29;20122;-77
2023/01/11 14:18:21;;;;;;;8.48;1.40;;;13.80;66.20;;;;;;4937312;29;20023;-77
2023/01/11 14:21:03;;;;;;;5.63;1.30;;;13.80;66.50;;;;;;4936003;29;20031;-76
2023/01/11 14:23:41;;;;;;;8.25;2.08;;;13.80;64.90;;;;;;4933687;29;20019;-76
2023/01/11 14:26:26;;;;;;;5.70;1.40;;;13.80;64.90;;;;;;4933074;29;20454;-76
2023/01/11 14:29:03;;;;;;;4.82;1.20;;;13.80;64.50;;;;;;4934270;29;20082;-76
2023/01/11 14:31:50;;;;;;;6.32;1.92;;;13.60;65.00;;;;;;4916282;29;20055;-76
2023/01/11 14:34:37;;;;;;;6.25;1.15;;;13.50;65.00;;;;;;4932466;29;20027;-76
2023/01/11 14:37:32;;;;;;;6.60;1.92;;;13.40;65.00;;;;;;4919615;29;20027;-76
2023/01/11 14:40:25;;;;;;;6.40;1.60;;;13.30;65.20;;;;;;4918914;29;20091;-76
2023/01/11 14:43:00;;;;;;;5.03;1.25;;;13.30;66.50;;;;;;4939012;29;20032;-76
2023/01/11 14:45:44;;;;;;;4.60;1.08;;;13.40;66.90;;;;;;4937483;29;20030;-76
2023/01/11 14:48:22;;;;;;;6.03;1.42;;;13.30;66.10;;;;;;4934575;29;20155;-76
2023/01/11 14:51:43;;;;;;;8.70;1.98;;;13.30;67.00;;;;;;4935593;29;20118;-76
2023/01/11 14:54:20;;;;;;;9.98;1.90;;;13.30;67.20;;;;;;4843049;29;20109;-76
2023/01/11 14:56:48;;;;;;;8.88;1.58;;;13.30;67.10;;;;;;4931435;29;20030;-76
2023/01/11 14:59:29;;;;;;;13.02;2.33;;;13.30;67.70;;;;;;4933128;29;20028;-75
2023/01/11 15:02:04;;;;;;;9.25;1.88;;;13.30;68.00;;;;;;4898141;29;20090;-76
2023/01/11 15:04:37;;;;;;;6.32;1.85;;;13.30;68.30;;;;;;4934161;29;20028;-76
2023/01/11 15:07:28;;;;;;;8.75;1.73;;;13.30;68.70;;;;;;4936349;29;20055;-75
2023/01/11 15:09:56;;;;;;;10.95;1.95;;;13.30;68.80;;;;;;4935332;29;20070;-75
2023/01/11 15:12:35;;;;;;;6.72;1.77;;;13.30;68.10;;;;;;4936672;29;20122;-74
2023/01/11 15:18:16;;;;;;;9.75;2.38;;;13.30;69.20;;;;;;4898447;29;20516;-75
2023/01/11 15:18:18;;;;;;;7.53;1.58;;;13.20;69.00;;;;;;4937875;29;20042;-76
2023/01/11 15:20:51;;;;;;;9.50;1.98;;;13.20;69.20;;;;;;4919074;29;20470;-76
2023/01/11 15:23:17;;;;;;;8.27;1.88;;;13.20;69.70;;;;;;4937090;29;20098;-75
2023/01/11 15:25:48;;;;;;;13.00;2.20;;;13.20;69.90;;;;;;4935759;29;20032;-75
2023/01/11 15:28:36;;;;;;;10.52;2.20;;;13.20;70.10;;;;;;4919982;29;20031;-75
2023/01/11 15:31:03;;;;;;;8.43;1.70;;;13.20;70.30;;;;;;4921398;29;20054;-74
2023/01/11 15:33:47;;;;;;;5.45;1.83;;;13.00;70.00;;;;;;4939318;29;20038;-74
2023/01/11 15:36:13;;;;;;;11.65;1.80;;;13.00;70.30;;;;;;4933068;29;20083;-74
2023/01/11 15:38:53;;;;;;;6.82;1.42;;;13.00;70.40;;;;;;4905163;29;20035;-75
2023/01/11 15:42:03;;;;;;;12.48;2.42;;;13.00;70.50;;;;;;4933316;29;20027;-74
2023/01/11 15:44:47;;;;;;;11.80;2.00;;;12.90;70.60;;;;;;4918836;29;20043;-75
2023/01/11 15:47:16;;;;;;;8.75;2.03;;;12.90;70.80;;;;;;4933395;29;20518;-74
2023/01/11 15:50:14;;;;;;;10.88;2.08;;;12.90;70.90;;;;;;4940390;29;20027;-75
2023/01/11 15:53:30;;;;;;;9.07;1.70;;;12.80;71.20;;;;;;4902673;29;20035;-75
2023/01/11 15:56:13;;;;;;;9.93;2.25;;;12.80;71.50;;;;;;4846665;29;20056;-75
2023/01/11 15:58:48;;;;;;;9.85;3.00;;;12.80;71.60;;;;;;4930513;29;20036;-75
2023/01/11 16:01:27;;;;;;;10.15;2.15;;;12.80;71.80;;;;;;4889310;29;20048;-75
2023/01/11 16:04:14;;;;;;;7.57;1.90;;;12.80;72.30;;;;;;4917957;29;20031;-75
2023/01/11 16:06:52;;;;;;;11.05;2.25;;;12.80;72.30;;;;;;4935061;29;20414;-75
2023/01/11 16:09:37;;;;;;;14.88;2.80;;;12.70;72.60;;;;;;4935437;29;20024;-75
2023/01/11 16:12:28;;;;;;;14.40;2.38;;;12.70;72.70;;;;;;4929577;29;20410;-75
2023/01/11 16:15:16;;;;;;;6.15;1.60;;;12.70;72.90;;;;;;4915225;29;20027;-75
2023/01/11 16:17:44;;;;;;;5.32;2.15;;;12.70;73.10;;;;;;4918964;29;20075;-75
2023/01/11 16:20:19;;;;;;;12.05;2.10;;;12.70;73.00;;;;;;4919551;29;20020;-75
2023/01/11 16:22:53;;;;;;;7.07;1.73;;;12.50;72.80;;;;;;4937459;29;20028;-75
2023/01/11 16:25:20;;;;;;;17.15;2.58;;;12.50;73.20;;;;;;4934293;29;20035;-74
2023/01/11 16:27:51;;;;;;;12.23;3.33;;;12.50;73.20;;;;;;4936714;29;20023;-74
2023/01/11 16:30:18;;;;;;;6.25;1.73;;;12.50;73.40;;;;;;4932579;29;20106;-76
2023/01/11 16:32:43;;;;;;;9.82;2.42;;;12.50;73.30;;;;;;4918439;29;20034;-75
2023/01/11 16:35:24;;;;;;;10.23;2.13;;;12.50;73.50;;;;;;4930951;29;20065;-75
2023/01/11 16:37:55;;;;;;;11.10;2.22;;;12.50;73.30;;;;;;4936109;29;20016;-75
2023/01/11 16:40:27;;;;;;;11.90;2.50;;;12.50;73.10;;;;;;4934427;29;20027;-75
2023/01/11 16:43:06;;;;;;;16.00;2.25;;;12.50;73.30;;;;;;4919564;29;20055;-77
2023/01/11 16:45:50;;;;;;;8.60;2.58;;;12.50;72.90;;;;;;4915512;29;20043;-76
2023/01/11 16:48:25;;;;;;;9.77;2.38;;;12.40;73.10;;;;;;4901696;29;20032;-76
2023/01/11 16:51:06;;;;;;;11.63;2.13;;;12.40;73.30;;;;;;4934824;29;20027;-76
2023/01/11 16:53:43;;;;;;;10.27;1.85;;;12.40;73.00;;;;;;4917447;29;20498;-76
2023/01/11 16:56:35;;;;;;;15.77;2.92;;;12.40;73.10;;;;;;4924262;29;20031;-77
2023/01/11 16:59:18;;;;;;;9.15;2.83;;;12.30;73.10;;;;;;4933170;29;20130;-76
2023/01/11 17:02:08;;;;;;;9.63;2.33;;;12.40;73.50;;;;;;4913732;29;20059;-76
2023/01/11 17:04:47;;;;;;;14.07;2.28;;;12.30;73.10;;;;;;4932386;29;20063;-76
2023/01/11 17:07:20;;;;;;;6.30;2.05;;;12.30;73.40;;;;;;4934899;29;20031;-78
2023/01/11 17:09:46;;;;;;;10.30;2.30;;;12.30;73.40;;;;;;4935250;29;20031;-76
2023/01/11 17:12:22;;;;;;;12.70;3.53;;;12.30;73.20;;;;;;4899666;29;20561;-76
2023/01/11 17:15:12;;;;;;;15.43;2.50;;;12.30;73.30;;;;;;4923773;29;20109;-75
2023/01/11 17:17:38;;;;;;;10.82;2.13;;;12.30;73.10;;;;;;4927803;29;20521;-75
2023/01/11 17:20:25;;;;;;;15.90;2.70;;;12.30;73.10;;;;;;4929837;29;20038;-76
2023/01/11 17:22:52;;;;;;;12.05;3.08;;;12.30;73.20;;;;;;4934020;29;20024;-76
2023/01/11 17:25:25;;;;;;;12.60;2.30;;;12.40;73.30;;;;;;4932784;29;20723;-76
2023/01/11 17:28:04;;;;;;;7.72;2.13;;;12.40;73.30;;;;;;4933884;29;20036;-76
2023/01/11 17:30:31;;;;;;;6.03;1.88;;;12.40;73.10;;;;;;4933750;29;21391;-76
2023/01/11 17:33:00;;;;;;;8.43;2.53;;;12.30;72.90;;;;;;4932307;29;20043;-76
2023/01/11 17:35:35;;;;;;;11.47;2.27;;;12.30;73.40;;;;;;4934972;29;20035;-76
2023/01/11 17:38:05;;;;;;;9.13;2.85;;;12.20;73.20;;;;;;4886461;29;20035;-75
2023/01/11 17:40:36;;;;;;;;;;;12.30;73.60;;;;;;4933549;29;20024;-76
2023/01/11 17:46:01;;;;;;;8.00;2.40;;;12.30;74.60;;;;;;4898382;29;20063;-75
2023/01/11 17:48:28;;;;;;;11.45;2.53;;;12.30;74.60;;;;;;4939959;29;20031;-76
2023/01/11 17:50:59;;;;;;;11.75;2.63;;;12.30;74.70;;;;;;4936898;29;20526;-75
2023/01/11 17:53:33;;;;;;;13.52;2.72;;;12.20;75.10;;;;;;4937680;29;20131;-75
2023/01/11 17:56:02;;;;;;;10.70;2.45;;;12.20;75.10;;;;;;4938595;29;20032;-76
2023/01/11 17:58:37;;;;;;;9.23;2.15;;;12.10;75.50;;;;;;4922214;29;20023;-76
2023/01/11 18:01:03;;;;;;;12.43;2.47;;;12.10;75.30;;;;;;4933867;29;20063;-75
2023/01/11 18:03:37;;;;;;;8.23;3.38;;;12.10;75.60;;;;;;4941792;29;20051;-75
2023/01/11 18:06:31;;;;;;;8.57;1.83;;;11.90;76.00;;;;;;4938199;29;20035;-75
2023/01/11 18:08:59;;;;;;;8.25;1.85;;;12.00;76.20;;;;;;4920348;29;20028;-75
2023/01/11 18:11:25;;;;;;;11.00;2.03;;;12.00;76.20;;;;;;4937189;29;20044;-76
2023/01/11 18:13:52;;;;;;;14.75;3.38;;;12.00;76.40;;;;;;4940079;29;20024;-76
2023/01/11 18:16:21;;;;;;;7.78;2.78;;;12.00;76.50;;;;;;4918751;29;20110;-75
2023/01/11 18:18:49;;;;;;;13.70;3.65;;;12.00;76.60;;;;;;4937252;29;20127;-76
2023/01/11 18:21:49;;;;;;;7.88;2.38;;;12.00;76.80;;;;;;4938695;29;20055;-76
2023/01/11 18:24:28;;;;;;;7.63;2.67;;;12.00;76.70;;;;;;4917214;29;20024;-76
2023/01/11 18:27:15;;;;;;;14.85;2.83;;;12.00;76.60;;;;;;4938604;29;20557;-76
2023/01/11 18:29:41;;;;;;;10.75;2.50;;;12.00;76.40;;;;;;4915258;29;20079;-76
2023/01/11 18:32:09;;;;;;;11.55;3.10;;;12.10;76.30;;;;;;4938846;29;20059;-75
2023/01/11 18:34:35;;;;;;;14.98;2.35;;;12.10;76.20;;;;;;4921968;29;20371;-76
2023/01/11 18:37:05;;;;;;;8.10;3.10;;;12.10;76.10;;;;;;4939017;29;20028;-76
2023/01/11 18:39:31;;;;;;;10.02;2.42;;;12.00;76.20;;;;;;4938180;29;20027;-79
2023/01/11 18:42:06;;;;;;;16.80;3.03;;;12.10;76.50;;;;;;4938602;29;20047;-77
2023/01/11 18:44:44;;;;;;;8.40;2.40;;;12.00;76.50;;;;;;4939133;29;20027;-78
2023/01/11 18:47:17;;;;;;;8.77;2.75;;;12.00;76.70;;;;;;4928649;29;20036;-78
2023/01/11 18:49:44;;;;;;;14.93;3.42;;;12.00;76.70;;;;;;4916098;29;20032;-77
2023/01/11 18:52:10;;;;;;;15.95;3.30;;;12.00;76.70;;;;;;4911526;29;20067;-80
2023/01/11 18:54:36;;;;;;;16.73;2.97;;;12.00;76.90;;;;;;4940289;29;20028;-77
2023/01/11 18:57:02;;;;;;;20.85;3.33;;;12.00;76.90;;;;;;4924394;29;20119;-78
2023/01/11 18:59:27;;;;;;;13.90;3.08;;;12.00;76.80;;;;;;4921019;29;20024;-78
2023/01/11 19:02:01;;;;;;;13.90;2.53;;;12.00;77.30;;;;;;4905040;29;20044;-80
2023/01/11 19:04:27;;;;;;;11.40;3.40;;;12.00;77.20;;;;;;4903868;29;20028;-77
2023/01/11 19:06:53;;;;;;;12.57;2.90;;;12.00;77.10;;;;;;4920828;29;20031;-79
2023/01/11 19:09:19;;;;;;;10.65;2.35;;;12.00;77.00;;;;;;4920569;29;20028;-79
2023/01/11 19:11:44;;;;;;;8.63;2.13;;;12.00;77.00;;;;;;4916955;29;20383;-81
2023/01/11 19:14:10;;;;;;;13.00;2.53;;;12.00;76.90;;;;;;4923515;29;20027;-78